Porcupine, SD (57772)

1:53 PM MDT on July 29, 2014 (GMT -0600)
Pine Ridge (KIEN) Elev 3330 ft | 43.02 °N, 102.52 °W | Change Station

Current weather conditions updated 1 hour ago

Overcast
Overcast
68 °F
Feels Like 68 °F
N
5
Wind Variable Wind from ENE

Today is forecast to be Cooler than yesterday.

Today
High -- | Low -- °F
--% Chance of Precip.
Yesterday
High -- | Low -- °F
Precip. -- in
5:35 AM 8:14 PM
Waxing Crescent, 7% visible
Pressure 30.20 in
Visibility 10.0 miles
Clouds Overcast 12000 ft
Dew Point 59 °F
Humidity 73%
Rainfall 0.00 in
Snow Depth Not available.
UV 3 out of 12
Pollen 7.10 out of 12
Air Quality Not available.
Flu Activity Not available.
METAR KIEN 291852Z AUTO 07004KT 10SM OVC120 20/15 A3026 RMK AO2 RAB27E46 SLP226 P0000 T02000150

More Conditions Fewer Conditions

Pressure 30.20 in
Visibility 10.0 miles
Clouds Overcast 12000 ft
Dew Point 59 °F
Humidity 73%
Rainfall 0.00 in
Snow Depth Not available.
UV 3 out of 12
Pollen 7.10 out of 12
Air Quality Not available.
Flu Activity Not available.
METAR KIEN 291852Z AUTO 07004KT 10SM OVC120 20/15 A3026 RMK AO2 RAB27E46 SLP226 P0000 T02000150

More Conditions Fewer Conditions

10-Day Weather Forecast

Almanac

Astronomy

Jul. 29, 2014 Rise Set
Actual Time 5:35 AM MDT 8:14 PM MDT
Civil Twilight 5:03 AM MDT 8:46 PM MDT
Nautical Twilight 4:21 AM MDT 9:27 PM MDT
Astronomical Twilight 3:34 AM MDT 10:14 PM MDT
Moon 8:20 AM MDT 9:20 PM MDT
Length of Visible Light 15h 43m
Length of Day
14h 38m
Tomorrow will be 2m 11s shorter.
Waxing Crescent, 7% of the Moon is Illuminated
Today
Waxing Crescent
Aug 3
First Quarter
Aug 10
Full
Aug 17
Last Quarter
Aug 25
New

Today's Extremes

State Highs State Lows

Community

WunderPhotos

Upload Photos

1,738,834 photos uploaded!

Nearby

Snow Depth

Station Depth Elevation
North Rapid Creek 0 in 6130 ft
Blind Park 0 in 6890 ft

Earthquake Activity

City Distance Mag. Time & Date
No recent earthquake activity has been reported nearby.
Minimum magnitude displayed is 2.5.

Coastal Water Temperatures

Place Temperature
No Stations Reporting

Nearby Weather Stations

Station Location Temp. Dew Point Humidity Wind Precip. Elev Updated Type
RAWS PORCUPINE SD, Porcupine, SD 69 °F 56 °F 64% ENE  at  8 mph 0.00 in / hr 3786 ft 12:41 PM MDT MADIS

Show More Stations Show Fewer Stations